sensor_id;sensor_type;location;lat;lon;timestamp;P1;durP1;ratioP1;P2;durP2;ratioP2
76826;SDS011;65788;52.284;20.890;2023-02-02T00:01:41;7.00;;;3.40;;
76826;SDS011;65788;52.284;20.890;2023-02-02T00:04:15;5.60;;;3.00;;
76826;SDS011;65788;52.284;20.890;2023-02-02T00:06:44;7.70;;;3.20;;
76826;SDS011;65788;52.284;20.890;2023-02-02T00:09:13;5.40;;;3.10;;
76826;SDS011;65788;52.284;20.890;2023-02-02T00:11:42;5.20;;;3.00;;
76826;SDS011;65788;52.284;20.890;2023-02-02T00:14:10;5.80;;;3.00;;
76826;SDS011;65788;52.284;20.890;2023-02-02T00:16:40;5.50;;;2.80;;
76826;SDS011;65788;52.284;20.890;2023-02-02T00:19:11;4.80;;;2.90;;
76826;SDS011;65788;52.284;20.890;2023-02-02T00:21:41;5.90;;;2.90;;
76826;SDS011;65788;52.284;20.890;2023-02-02T00:24:10;5.90;;;3.30;;
76826;SDS011;65788;52.284;20.890;2023-02-02T00:26:43;5.80;;;3.00;;
76826;SDS011;65788;52.284;20.890;2023-02-02T00:29:16;6.70;;;3.10;;
76826;SDS011;65788;52.284;20.890;2023-02-02T00:31:48;4.80;;;2.80;;
76826;SDS011;65788;52.284;20.890;2023-02-02T00:34:16;6.20;;;3.10;;
76826;SDS011;65788;52.284;20.890;2023-02-02T00:36:44;5.30;;;3.00;;
76826;SDS011;65788;52.284;20.890;2023-02-02T00:39:14;5.10;;;2.90;;
76826;SDS011;65788;52.284;20.890;2023-02-02T00:41:44;5.30;;;2.80;;
76826;SDS011;65788;52.284;20.890;2023-02-02T00:44:12;4.70;;;2.70;;
76826;SDS011;65788;52.284;20.890;2023-02-02T00:46:59;5.20;;;2.60;;
76826;SDS011;65788;52.284;20.890;2023-02-02T00:49:26;6.00;;;3.00;;
76826;SDS011;65788;52.284;20.890;2023-02-02T00:51:53;6.10;;;3.00;;
76826;SDS011;65788;52.284;20.890;2023-02-02T00:54:21;6.00;;;3.00;;
76826;SDS011;65788;52.284;20.890;2023-02-02T00:56:48;5.60;;;3.00;;
76826;SDS011;65788;52.284;20.890;2023-02-02T00:59:15;5.30;;;2.80;;
76826;SDS011;65788;52.284;20.890;2023-02-02T01:01:42;5.80;;;2.80;;
76826;SDS011;65788;52.284;20.890;2023-02-02T01:04:10;4.90;;;3.00;;
76826;SDS011;65788;52.284;20.890;2023-02-02T01:06:37;5.30;;;2.90;;
76826;SDS011;65788;52.284;20.890;2023-02-02T01:09:05;5.90;;;3.00;;
76826;SDS011;65788;52.284;20.890;2023-02-02T01:11:35;4.90;;;2.70;;
76826;SDS011;65788;52.284;20.890;2023-02-02T01:14:02;4.30;;;2.60;;
76826;SDS011;65788;52.284;20.890;2023-02-02T01:16:30;4.40;;;2.60;;
76826;SDS011;65788;52.284;20.890;2023-02-02T01:18:57;5.40;;;2.70;;
76826;SDS011;65788;52.284;20.890;2023-02-02T01:21:24;6.20;;;3.10;;
76826;SDS011;65788;52.284;20.890;2023-02-02T01:23:51;6.90;;;3.40;;
76826;SDS011;65788;52.284;20.890;2023-02-02T01:26:19;5.30;;;2.90;;
76826;SDS011;65788;52.284;20.890;2023-02-02T01:28:46;4.80;;;2.40;;
76826;SDS011;65788;52.284;20.890;2023-02-02T01:31:14;5.10;;;2.80;;
76826;SDS011;65788;52.284;20.890;2023-02-02T01:33:43;5.10;;;2.80;;
76826;SDS011;65788;52.284;20.890;2023-02-02T01:38:39;4.30;;;2.40;;
76826;SDS011;65788;52.284;20.890;2023-02-02T01:46:13;5.50;;;2.60;;
76826;SDS011;65788;52.284;20.890;2023-02-02T01:48:43;5.30;;;2.60;;
76826;SDS011;65788;52.284;20.890;2023-02-02T01:51:16;5.40;;;2.50;;
76826;SDS011;65788;52.284;20.890;2023-02-02T01:53:46;6.90;;;3.40;;
76826;SDS011;65788;52.284;20.890;2023-02-02T01:56:18;4.70;;;2.60;;
76826;SDS011;65788;52.284;20.890;2023-02-02T01:58:54;5.20;;;2.70;;
76826;SDS011;65788;52.284;20.890;2023-02-02T02:01:23;4.20;;;2.60;;
76826;SDS011;65788;52.284;20.890;2023-02-02T02:03:51;4.00;;;2.40;;
76826;SDS011;65788;52.284;20.890;2023-02-02T02:06:18;4.30;;;2.30;;
76826;SDS011;65788;52.284;20.890;2023-02-02T02:11:24;4.50;;;2.60;;
76826;SDS011;65788;52.284;20.890;2023-02-02T02:13:53;4.70;;;2.60;;
76826;SDS011;65788;52.284;20.890;2023-02-02T02:37:48;4.70;;;2.40;;
76826;SDS011;65788;52.284;20.890;2023-02-02T02:40:31;4.30;;;2.40;;
76826;SDS011;65788;52.284;20.890;2023-02-02T02:43:08;4.60;;;2.30;;
76826;SDS011;65788;52.284;20.890;2023-02-02T02:45:44;3.60;;;2.10;;
76826;SDS011;65788;52.284;20.890;2023-02-02T02:48:12;4.80;;;3.20;;
76826;SDS011;65788;52.284;20.890;2023-02-02T02:50:39;4.30;;;2.10;;
76826;SDS011;65788;52.284;20.890;2023-02-02T02:53:08;3.90;;;2.10;;
76826;SDS011;65788;52.284;20.890;2023-02-02T02:55:50;3.80;;;2.40;;
76826;SDS011;65788;52.284;20.890;2023-02-02T02:58:35;4.10;;;2.20;;
76826;SDS011;65788;52.284;20.890;2023-02-02T03:01:20;4.40;;;2.00;;
76826;SDS011;65788;52.284;20.890;2023-02-02T03:03:59;4.90;;;2.00;;
76826;SDS011;65788;52.284;20.890;2023-02-02T03:06:46;4.40;;;2.30;;
76826;SDS011;65788;52.284;20.890;2023-02-02T03:09:18;4.50;;;2.10;;
76826;SDS011;65788;52.284;20.890;2023-02-02T03:11:51;5.40;;;2.30;;
76826;SDS011;65788;52.284;20.890;2023-02-02T03:14:18;4.40;;;2.20;;
76826;SDS011;65788;52.284;20.890;2023-02-02T03:16:45;4.40;;;2.10;;
76826;SDS011;65788;52.284;20.890;2023-02-02T03:19:13;3.60;;;2.10;;
76826;SDS011;65788;52.284;20.890;2023-02-02T03:21:40;4.00;;;2.30;;
76826;SDS011;65788;52.284;20.890;2023-02-02T03:24:07;3.90;;;2.00;;
76826;SDS011;65788;52.284;20.890;2023-02-02T03:26:34;4.70;;;2.00;;
76826;SDS011;65788;52.284;20.890;2023-02-02T03:29:03;4.50;;;2.10;;
76826;SDS011;65788;52.284;20.890;2023-02-02T03:31:30;4.50;;;1.70;;
76826;SDS011;65788;52.284;20.890;2023-02-02T03:33:57;3.10;;;1.60;;
76826;SDS011;65788;52.284;20.890;2023-02-02T03:36:24;4.10;;;2.00;;
76826;SDS011;65788;52.284;20.890;2023-02-02T03:38:52;4.00;;;2.10;;
76826;SDS011;65788;52.284;20.890;2023-02-02T03:41:19;4.70;;;2.10;;
76826;SDS011;65788;52.284;20.890;2023-02-02T03:43:46;4.10;;;1.80;;
76826;SDS011;65788;52.284;20.890;2023-02-02T03:46:13;4.10;;;2.10;;
76826;SDS011;65788;52.284;20.890;2023-02-02T03:48:40;3.90;;;2.00;;
76826;SDS011;65788;52.284;20.890;2023-02-02T03:51:08;4.30;;;2.10;;
76826;SDS011;65788;52.284;20.890;2023-02-02T03:53:38;4.40;;;2.10;;
76826;SDS011;65788;52.284;20.890;2023-02-02T03:56:06;3.50;;;1.80;;
76826;SDS011;65788;52.284;20.890;2023-02-02T03:58:33;3.90;;;2.00;;
76826;SDS011;65788;52.284;20.890;2023-02-02T04:01:01;4.30;;;1.90;;
76826;SDS011;65788;52.284;20.890;2023-02-02T04:03:30;4.60;;;2.10;;
76826;SDS011;65788;52.284;20.890;2023-02-02T04:05:57;3.60;;;2.00;;
76826;SDS011;65788;52.284;20.890;2023-02-02T04:08:24;4.00;;;1.70;;
76826;SDS011;65788;52.284;20.890;2023-02-02T04:10:51;4.70;;;2.10;;
76826;SDS011;65788;52.284;20.890;2023-02-02T04:13:19;4.30;;;1.90;;
76826;SDS011;65788;52.284;20.890;2023-02-02T04:15:46;3.20;;;1.50;;
76826;SDS011;65788;52.284;20.890;2023-02-02T04:18:16;3.80;;;2.00;;
76826;SDS011;65788;52.284;20.890;2023-02-02T04:20:42;3.90;;;1.80;;
76826;SDS011;65788;52.284;20.890;2023-02-02T04:23:09;3.70;;;2.10;;
76826;SDS011;65788;52.284;20.890;2023-02-02T04:25:37;4.90;;;2.20;;
76826;SDS011;65788;52.284;20.890;2023-02-02T04:28:04;4.60;;;2.10;;
76826;SDS011;65788;52.284;20.890;2023-02-02T04:30:31;4.80;;;2.00;;
76826;SDS011;65788;52.284;20.890;2023-02-02T04:33:00;3.30;;;1.60;;
76826;SDS011;65788;52.284;20.890;2023-02-02T04:35:27;5.20;;;2.30;;
76826;SDS011;65788;52.284;20.890;2023-02-02T04:37:55;4.00;;;1.90;;
76826;SDS011;65788;52.284;20.890;2023-02-02T04:40:22;4.60;;;2.10;;
76826;SDS011;65788;52.284;20.890;2023-02-02T04:42:51;3.70;;;2.00;;
76826;SDS011;65788;52.284;20.890;2023-02-02T04:45:18;5.00;;;2.50;;
76826;SDS011;65788;52.284;20.890;2023-02-02T04:47:46;4.00;;;1.70;;
76826;SDS011;65788;52.284;20.890;2023-02-02T04:50:13;3.60;;;1.90;;
76826;SDS011;65788;52.284;20.890;2023-02-02T04:52:43;5.10;;;2.00;;
76826;SDS011;65788;52.284;20.890;2023-02-02T04:55:10;5.10;;;1.80;;
76826;SDS011;65788;52.284;20.890;2023-02-02T04:57:38;4.80;;;2.20;;
76826;SDS011;65788;52.284;20.890;2023-02-02T05:00:05;3.20;;;1.70;;
76826;SDS011;65788;52.284;20.890;2023-02-02T05:02:36;5.00;;;2.20;;
76826;SDS011;65788;52.284;20.890;2023-02-02T05:05:08;4.60;;;1.90;;
76826;SDS011;65788;52.284;20.890;2023-02-02T05:07:37;3.80;;;1.80;;
76826;SDS011;65788;52.284;20.890;2023-02-02T05:12:33;4.50;;;2.00;;
76826;SDS011;65788;52.284;20.890;2023-02-02T05:15:00;5.20;;;2.00;;
76826;SDS011;65788;52.284;20.890;2023-02-02T05:17:29;5.80;;;2.50;;
76826;SDS011;65788;52.284;20.890;2023-02-02T05:19:56;4.80;;;1.90;;
76826;SDS011;65788;52.284;20.890;2023-02-02T05:22:23;7.40;;;1.90;;
76826;SDS011;65788;52.284;20.890;2023-02-02T05:24:53;5.40;;;2.30;;
76826;SDS011;65788;52.284;20.890;2023-02-02T05:27:20;5.20;;;2.40;;
76826;SDS011;65788;52.284;20.890;2023-02-02T05:29:47;6.40;;;2.40;;
76826;SDS011;65788;52.284;20.890;2023-02-02T05:32:14;7.00;;;2.20;;
76826;SDS011;65788;52.284;20.890;2023-02-02T05:34:42;5.90;;;2.00;;
76826;SDS011;65788;52.284;20.890;2023-02-02T05:37:09;6.00;;;2.20;;
76826;SDS011;65788;52.284;20.890;2023-02-02T05:39:37;4.10;;;2.10;;
76826;SDS011;65788;52.284;20.890;2023-02-02T05:42:04;5.20;;;2.10;;
76826;SDS011;65788;52.284;20.890;2023-02-02T05:44:31;6.80;;;2.70;;
76826;SDS011;65788;52.284;20.890;2023-02-02T05:47:01;6.20;;;2.20;;
76826;SDS011;65788;52.284;20.890;2023-02-02T05:49:28;5.60;;;1.90;;
76826;SDS011;65788;52.284;20.890;2023-02-02T05:51:55;4.50;;;1.80;;
76826;SDS011;65788;52.284;20.890;2023-02-02T05:54:25;5.20;;;2.30;;
76826;SDS011;65788;52.284;20.890;2023-02-02T05:56:54;5.40;;;2.30;;
76826;SDS011;65788;52.284;20.890;2023-02-02T05:59:22;4.50;;;2.20;;
76826;SDS011;65788;52.284;20.890;2023-02-02T06:01:50;5.40;;;2.00;;
76826;SDS011;65788;52.284;20.890;2023-02-02T06:04:17;5.50;;;2.10;;
76826;SDS011;65788;52.284;20.890;2023-02-02T06:06:44;4.90;;;1.80;;
76826;SDS011;65788;52.284;20.890;2023-02-02T06:09:13;6.60;;;2.40;;
76826;SDS011;65788;52.284;20.890;2023-02-02T06:11:42;4.90;;;2.40;;
76826;SDS011;65788;52.284;20.890;2023-02-02T06:14:09;6.30;;;2.10;;
76826;SDS011;65788;52.284;20.890;2023-02-02T06:16:36;5.30;;;2.10;;
76826;SDS011;65788;52.284;20.890;2023-02-02T06:19:03;4.60;;;2.00;;
76826;SDS011;65788;52.284;20.890;2023-02-02T06:21:31;5.70;;;2.10;;
76826;SDS011;65788;52.284;20.890;2023-02-02T06:24:00;4.30;;;1.90;;
76826;SDS011;65788;52.284;20.890;2023-02-02T06:26:28;3.30;;;2.00;;
76826;SDS011;65788;52.284;20.890;2023-02-02T06:28:55;4.80;;;2.00;;
76826;SDS011;65788;52.284;20.890;2023-02-02T06:31:23;7.10;;;2.30;;
76826;SDS011;65788;52.284;20.890;2023-02-02T06:33:54;5.00;;;1.80;;
76826;SDS011;65788;52.284;20.890;2023-02-02T06:36:23;4.60;;;1.90;;
76826;SDS011;65788;52.284;20.890;2023-02-02T06:38:52;4.90;;;2.00;;
76826;SDS011;65788;52.284;20.890;2023-02-02T06:41:22;4.90;;;2.30;;
76826;SDS011;65788;52.284;20.890;2023-02-02T06:43:50;5.90;;;1.90;;
76826;SDS011;65788;52.284;20.890;2023-02-02T06:46:17;6.70;;;2.50;;
76826;SDS011;65788;52.284;20.890;2023-02-02T06:48:44;5.90;;;2.20;;
76826;SDS011;65788;52.284;20.890;2023-02-02T06:51:11;4.50;;;1.90;;
76826;SDS011;65788;52.284;20.890;2023-02-02T06:53:38;4.90;;;2.20;;
76826;SDS011;65788;52.284;20.890;2023-02-02T06:56:06;5.50;;;1.80;;
76826;SDS011;65788;52.284;20.890;2023-02-02T06:58:37;5.50;;;2.00;;
76826;SDS011;65788;52.284;20.890;2023-02-02T07:01:06;4.70;;;2.00;;
76826;SDS011;65788;52.284;20.890;2023-02-02T07:03:38;5.00;;;2.20;;
76826;SDS011;65788;52.284;20.890;2023-02-02T07:06:09;3.80;;;1.90;;
76826;SDS011;65788;52.284;20.890;2023-02-02T07:08:38;5.00;;;2.10;;
76826;SDS011;65788;52.284;20.890;2023-02-02T07:11:05;4.70;;;2.10;;
76826;SDS011;65788;52.284;20.890;2023-02-02T07:13:32;3.80;;;1.60;;
76826;SDS011;65788;52.284;20.890;2023-02-02T07:15:59;5.10;;;1.90;;
76826;SDS011;65788;52.284;20.890;2023-02-02T07:18:26;6.00;;;2.30;;
76826;SDS011;65788;52.284;20.890;2023-02-02T07:20:54;8.50;;;2.60;;
76826;SDS011;65788;52.284;20.890;2023-02-02T07:23:26;5.70;;;2.30;;
76826;SDS011;65788;52.284;20.890;2023-02-02T07:26:00;10.30;;;2.60;;
76826;SDS011;65788;52.284;20.890;2023-02-02T07:28:32;7.30;;;2.60;;
76826;SDS011;65788;52.284;20.890;2023-02-02T07:31:00;6.60;;;2.70;;
76826;SDS011;65788;52.284;20.890;2023-02-02T07:33:39;7.70;;;2.60;;
76826;SDS011;65788;52.284;20.890;2023-02-02T07:36:07;9.30;;;3.00;;
76826;SDS011;65788;52.284;20.890;2023-02-02T07:38:34;8.10;;;2.70;;
76826;SDS011;65788;52.284;20.890;2023-02-02T07:41:02;8.40;;;2.60;;
76826;SDS011;65788;52.284;20.890;2023-02-02T07:43:29;11.30;;;2.50;;
76826;SDS011;65788;52.284;20.890;2023-02-02T07:46:00;9.00;;;2.70;;
76826;SDS011;65788;52.284;20.890;2023-02-02T07:48:29;8.00;;;3.00;;
76826;SDS011;65788;52.284;20.890;2023-02-02T07:50:57;6.40;;;2.30;;
76826;SDS011;65788;52.284;20.890;2023-02-02T07:53:28;8.10;;;2.20;;
76826;SDS011;65788;52.284;20.890;2023-02-02T07:56:06;8.60;;;2.30;;
76826;SDS011;65788;52.284;20.890;2023-02-02T07:58:43;6.00;;;2.50;;
76826;SDS011;65788;52.284;20.890;2023-02-02T08:01:11;8.20;;;2.50;;
76826;SDS011;65788;52.284;20.890;2023-02-02T08:03:39;5.90;;;2.30;;
76826;SDS011;65788;52.284;20.890;2023-02-02T08:08:38;7.40;;;2.90;;
76826;SDS011;65788;52.284;20.890;2023-02-02T08:11:07;6.30;;;2.20;;
76826;SDS011;65788;52.284;20.890;2023-02-02T08:13:36;5.40;;;2.30;;
76826;SDS011;65788;52.284;20.890;2023-02-02T08:16:05;7.20;;;2.30;;
76826;SDS011;65788;52.284;20.890;2023-02-02T08:21:01;7.20;;;2.50;;
76826;SDS011;65788;52.284;20.890;2023-02-02T08:23:29;5.90;;;2.20;;
76826;SDS011;65788;52.284;20.890;2023-02-02T08:26:16;4.90;;;2.30;;
76826;SDS011;65788;52.284;20.890;2023-02-02T08:28:50;5.60;;;2.70;;
76826;SDS011;65788;52.284;20.890;2023-02-02T08:31:20;5.90;;;2.20;;
76826;SDS011;65788;52.284;20.890;2023-02-02T08:33:49;5.50;;;2.20;;
76826;SDS011;65788;52.284;20.890;2023-02-02T08:36:18;8.80;;;2.50;;
76826;SDS011;65788;52.284;20.890;2023-02-02T08:38:46;4.70;;;2.00;;
76826;SDS011;65788;52.284;20.890;2023-02-02T08:41:15;6.40;;;2.00;;
76826;SDS011;65788;52.284;20.890;2023-02-02T08:43:44;4.70;;;2.00;;
76826;SDS011;65788;52.284;20.890;2023-02-02T08:46:13;4.00;;;1.90;;
76826;SDS011;65788;52.284;20.890;2023-02-02T08:48:42;6.20;;;2.10;;
76826;SDS011;65788;52.284;20.890;2023-02-02T08:51:11;5.50;;;2.00;;
76826;SDS011;65788;52.284;20.890;2023-02-02T08:53:41;5.60;;;2.20;;
76826;SDS011;65788;52.284;20.890;2023-02-02T08:56:18;7.20;;;2.40;;
76826;SDS011;65788;52.284;20.890;2023-02-02T08:58:47;5.90;;;2.10;;
76826;SDS011;65788;52.284;20.890;2023-02-02T09:01:18;5.40;;;2.10;;
76826;SDS011;65788;52.284;20.890;2023-02-02T09:03:53;4.90;;;1.90;;
76826;SDS011;65788;52.284;20.890;2023-02-02T09:06:25;4.70;;;2.10;;
76826;SDS011;65788;52.284;20.890;2023-02-02T09:08:56;6.50;;;2.00;;
76826;SDS011;65788;52.284;20.890;2023-02-02T09:11:23;5.30;;;1.80;;
76826;SDS011;65788;52.284;20.890;2023-02-02T09:13:55;4.60;;;1.70;;
76826;SDS011;65788;52.284;20.890;2023-02-02T09:16:24;3.60;;;1.60;;
76826;SDS011;65788;52.284;20.890;2023-02-02T09:18:52;3.80;;;1.90;;
76826;SDS011;65788;52.284;20.890;2023-02-02T09:21:20;6.00;;;1.80;;
76826;SDS011;65788;52.284;20.890;2023-02-02T09:23:51;5.20;;;2.10;;
76826;SDS011;65788;52.284;20.890;2023-02-02T09:26:20;4.10;;;1.90;;
76826;SDS011;65788;52.284;20.890;2023-02-02T09:28:50;4.50;;;1.90;;
76826;SDS011;65788;52.284;20.890;2023-02-02T09:31:20;5.20;;;2.80;;
76826;SDS011;65788;52.284;20.890;2023-02-02T09:33:48;3.90;;;2.20;;
76826;SDS011;65788;52.284;20.890;2023-02-02T09:36:16;6.00;;;2.30;;
76826;SDS011;65788;52.284;20.890;2023-02-02T09:38:46;5.40;;;2.50;;
76826;SDS011;65788;52.284;20.890;2023-02-02T09:46:51;5.40;;;2.60;;
76826;SDS011;65788;52.284;20.890;2023-02-02T09:52:17;5.00;;;2.40;;
76826;SDS011;65788;52.284;20.890;2023-02-02T09:54:52;7.00;;;2.20;;
76826;SDS011;65788;52.284;20.890;2023-02-02T09:57:27;4.90;;;2.30;;
76826;SDS011;65788;52.284;20.890;2023-02-02T09:59:57;5.80;;;2.30;;
76826;SDS011;65788;52.284;20.890;2023-02-02T10:02:32;4.60;;;2.20;;
76826;SDS011;65788;52.284;20.890;2023-02-02T10:05:10;7.40;;;2.30;;
76826;SDS011;65788;52.284;20.890;2023-02-02T10:07:43;3.70;;;1.80;;
76826;SDS011;65788;52.284;20.890;2023-02-02T10:10:19;5.20;;;2.40;;
76826;SDS011;65788;52.284;20.890;2023-02-02T10:12:53;5.10;;;2.00;;
76826;SDS011;65788;52.284;20.890;2023-02-02T10:15:32;4.00;;;2.10;;
76826;SDS011;65788;52.284;20.890;2023-02-02T10:21:12;4.90;;;2.30;;
76826;SDS011;65788;52.284;20.890;2023-02-02T10:23:49;4.20;;;2.00;;
76826;SDS011;65788;52.284;20.890;2023-02-02T10:26:20;4.00;;;2.30;;
76826;SDS011;65788;52.284;20.890;2023-02-02T10:37:35;6.10;;;2.50;;
76826;SDS011;65788;52.284;20.890;2023-02-02T10:42:48;6.00;;;2.10;;
76826;SDS011;65788;52.284;20.890;2023-02-02T10:45:38;4.80;;;2.00;;
76826;SDS011;65788;52.284;20.890;2023-02-02T10:48:27;5.90;;;2.10;;
76826;SDS011;65788;52.284;20.890;2023-02-02T10:51:04;3.90;;;1.90;;
76826;SDS011;65788;52.284;20.890;2023-02-02T10:53:38;5.50;;;2.20;;
76826;SDS011;65788;52.284;20.890;2023-02-02T10:56:06;4.20;;;2.20;;
76826;SDS011;65788;52.284;20.890;2023-02-02T10:58:45;5.40;;;2.60;;
76826;SDS011;65788;52.284;20.890;2023-02-02T11:01:20;4.60;;;2.20;;
76826;SDS011;65788;52.284;20.890;2023-02-02T11:03:48;3.90;;;2.10;;
76826;SDS011;65788;52.284;20.890;2023-02-02T11:06:35;4.00;;;1.90;;
76826;SDS011;65788;52.284;20.890;2023-02-02T11:09:19;3.40;;;1.70;;
76826;SDS011;65788;52.284;20.890;2023-02-02T11:11:49;4.00;;;2.00;;
76826;SDS011;65788;52.284;20.890;2023-02-02T11:17:17;3.60;;;1.90;;
76826;SDS011;65788;52.284;20.890;2023-02-02T11:19:47;3.40;;;1.90;;
76826;SDS011;65788;52.284;20.890;2023-02-02T11:22:25;4.10;;;1.90;;
76826;SDS011;65788;52.284;20.890;2023-02-02T11:24:56;4.20;;;2.10;;
76826;SDS011;65788;52.284;20.890;2023-02-02T11:27:26;4.90;;;2.30;;
76826;SDS011;65788;52.284;20.890;2023-02-02T11:30:09;3.40;;;1.90;;
76826;SDS011;65788;52.284;20.890;2023-02-02T11:32:47;5.10;;;2.40;;
76826;SDS011;65788;52.284;20.890;2023-02-02T11:35:20;4.30;;;1.80;;
76826;SDS011;65788;52.284;20.890;2023-02-02T11:43:25;3.40;;;1.70;;
76826;SDS011;65788;52.284;20.890;2023-02-02T11:46:16;4.30;;;1.60;;
76826;SDS011;65788;52.284;20.890;2023-02-02T11:49:05;4.10;;;1.70;;
76826;SDS011;65788;52.284;20.890;2023-02-02T11:51:40;3.70;;;1.80;;
76826;SDS011;65788;52.284;20.890;2023-02-02T11:54:17;3.20;;;1.70;;
76826;SDS011;65788;52.284;20.890;2023-02-02T11:56:52;4.20;;;1.80;;
76826;SDS011;65788;52.284;20.890;2023-02-02T11:59:27;4.10;;;1.70;;
76826;SDS011;65788;52.284;20.890;2023-02-02T12:02:29;4.20;;;1.80;;
76826;SDS011;65788;52.284;20.890;2023-02-02T12:07:46;3.90;;;1.80;;
76826;SDS011;65788;52.284;20.890;2023-02-02T12:18:39;3.20;;;1.70;;
76826;SDS011;65788;52.284;20.890;2023-02-02T12:21:13;3.50;;;1.80;;
76826;SDS011;65788;52.284;20.890;2023-02-02T12:26:37;5.50;;;2.10;;
76826;SDS011;65788;52.284;20.890;2023-02-02T12:31:59;4.10;;;2.20;;
76826;SDS011;65788;52.284;20.890;2023-02-02T12:38:02;3.50;;;1.90;;
76826;SDS011;65788;52.284;20.890;2023-02-02T12:46:49;3.40;;;1.90;;
76826;SDS011;65788;52.284;20.890;2023-02-02T12:52:08;3.90;;;1.90;;
76826;SDS011;65788;52.284;20.890;2023-02-02T12:55:21;3.50;;;1.80;;
76826;SDS011;65788;52.284;20.890;2023-02-02T12:58:04;3.00;;;1.70;;
76826;SDS011;65788;52.284;20.890;2023-02-02T13:07:03;4.20;;;2.30;;
76826;SDS011;65788;52.284;20.890;2023-02-02T13:12:08;3.30;;;1.90;;
76826;SDS011;65788;52.284;20.890;2023-02-02T13:14:44;3.20;;;1.80;;
76826;SDS011;65788;52.284;20.890;2023-02-02T13:17:27;3.60;;;1.70;;
76826;SDS011;65788;52.284;20.890;2023-02-02T13:20:34;5.00;;;2.20;;
76826;SDS011;65788;52.284;20.890;2023-02-02T13:23:09;3.70;;;2.10;;
76826;SDS011;65788;52.284;20.890;2023-02-02T13:26:25;3.80;;;2.00;;
76826;SDS011;65788;52.284;20.890;2023-02-02T13:28:39;3.40;;;1.80;;
76826;SDS011;65788;52.284;20.890;2023-02-02T13:31:17;2.90;;;1.60;;
76826;SDS011;65788;52.284;20.890;2023-02-02T13:33:52;3.60;;;2.20;;
76826;SDS011;65788;52.284;20.890;2023-02-02T13:36:26;3.30;;;1.70;;
76826;SDS011;65788;52.284;20.890;2023-02-02T13:39:10;3.00;;;1.70;;
76826;SDS011;65788;52.284;20.890;2023-02-02T13:41:42;3.90;;;1.70;;
76826;SDS011;65788;52.284;20.890;2023-02-02T13:44:23;3.10;;;1.60;;
76826;SDS011;65788;52.284;20.890;2023-02-02T13:46:59;3.00;;;1.50;;
76826;SDS011;65788;52.284;20.890;2023-02-02T13:49:36;3.00;;;1.60;;
76826;SDS011;65788;52.284;20.890;2023-02-02T13:57:47;3.20;;;1.70;;
76826;SDS011;65788;52.284;20.890;2023-02-02T14:00:22;3.00;;;1.70;;
76826;SDS011;65788;52.284;20.890;2023-02-02T14:02:59;3.30;;;1.60;;
76826;SDS011;65788;52.284;20.890;2023-02-02T14:05:33;3.00;;;1.50;;
76826;SDS011;65788;52.284;20.890;2023-02-02T14:08:17;3.00;;;1.50;;
76826;SDS011;65788;52.284;20.890;2023-02-02T14:16:10;3.00;;;1.50;;
76826;SDS011;65788;52.284;20.890;2023-02-02T14:23:57;2.80;;;1.40;;
76826;SDS011;65788;52.284;20.890;2023-02-02T14:26:44;3.10;;;1.50;;
76826;SDS011;65788;52.284;20.890;2023-02-02T14:34:51;2.70;;;1.60;;
76826;SDS011;65788;52.284;20.890;2023-02-02T14:40:00;3.60;;;1.70;;
76826;SDS011;65788;52.284;20.890;2023-02-02T14:48:40;2.90;;;1.50;;
76826;SDS011;65788;52.284;20.890;2023-02-02T14:51:16;2.80;;;1.90;;
76826;SDS011;65788;52.284;20.890;2023-02-02T14:53:47;3.50;;;2.00;;
76826;SDS011;65788;52.284;20.890;2023-02-02T14:56:18;3.60;;;1.90;;
76826;SDS011;65788;52.284;20.890;2023-02-02T15:03:53;4.60;;;1.90;;
76826;SDS011;65788;52.284;20.890;2023-02-02T15:06:28;3.10;;;1.70;;
76826;SDS011;65788;52.284;20.890;2023-02-02T15:14:25;4.00;;;2.20;;
76826;SDS011;65788;52.284;20.890;2023-02-02T15:19:57;4.80;;;2.10;;
76826;SDS011;65788;52.284;20.890;2023-02-02T15:22:34;3.50;;;1.90;;
76826;SDS011;65788;52.284;20.890;2023-02-02T15:25:23;5.10;;;2.10;;
76826;SDS011;65788;52.284;20.890;2023-02-02T15:33:38;3.50;;;1.70;;
76826;SDS011;65788;52.284;20.890;2023-02-02T15:36:19;2.70;;;1.60;;
76826;SDS011;65788;52.284;20.890;2023-02-02T15:38:57;4.10;;;2.10;;
76826;SDS011;65788;52.284;20.890;2023-02-02T15:41:32;5.20;;;1.70;;
76826;SDS011;65788;52.284;20.890;2023-02-02T15:44:16;3.10;;;1.90;;
76826;SDS011;65788;52.284;20.890;2023-02-02T15:46:52;3.80;;;1.90;;
76826;SDS011;65788;52.284;20.890;2023-02-02T15:49:28;3.70;;;1.90;;
76826;SDS011;65788;52.284;20.890;2023-02-02T15:51:58;3.40;;;1.60;;
76826;SDS011;65788;52.284;20.890;2023-02-02T15:54:30;3.50;;;1.90;;
76826;SDS011;65788;52.284;20.890;2023-02-02T15:56:59;3.60;;;1.60;;
76826;SDS011;65788;52.284;20.890;2023-02-02T16:04:38;5.10;;;2.00;;
76826;SDS011;65788;52.284;20.890;2023-02-02T16:07:11;4.40;;;2.00;;
76826;SDS011;65788;52.284;20.890;2023-02-02T16:09:44;4.80;;;2.10;;
76826;SDS011;65788;52.284;20.890;2023-02-02T16:12:12;3.40;;;1.90;;
76826;SDS011;65788;52.284;20.890;2023-02-02T16:14:51;5.00;;;2.10;;
76826;SDS011;65788;52.284;20.890;2023-02-02T16:17:30;4.00;;;2.00;;
76826;SDS011;65788;52.284;20.890;2023-02-02T16:20:02;4.50;;;1.90;;
76826;SDS011;65788;52.284;20.890;2023-02-02T16:22:41;6.10;;;1.80;;
76826;SDS011;65788;52.284;20.890;2023-02-02T16:25:14;4.60;;;1.90;;
76826;SDS011;65788;52.284;20.890;2023-02-02T16:27:45;4.20;;;1.90;;
76826;SDS011;65788;52.284;20.890;2023-02-02T16:30:22;4.40;;;1.70;;
76826;SDS011;65788;52.284;20.890;2023-02-02T16:32:54;4.50;;;1.70;;
76826;SDS011;65788;52.284;20.890;2023-02-02T16:40:39;4.20;;;1.90;;
76826;SDS011;65788;52.284;20.890;2023-02-02T16:43:20;4.20;;;1.90;;
76826;SDS011;65788;52.284;20.890;2023-02-02T16:45:57;4.50;;;1.70;;
76826;SDS011;65788;52.284;20.890;2023-02-02T16:48:34;5.40;;;1.90;;
76826;SDS011;65788;52.284;20.890;2023-02-02T16:54:26;4.10;;;1.80;;
76826;SDS011;65788;52.284;20.890;2023-02-02T16:56:37;4.60;;;1.60;;
76826;SDS011;65788;52.284;20.890;2023-02-02T17:04:29;3.50;;;1.60;;
76826;SDS011;65788;52.284;20.890;2023-02-02T17:07:05;3.50;;;1.70;;
76826;SDS011;65788;52.284;20.890;2023-02-02T17:09:41;3.70;;;1.70;;
76826;SDS011;65788;52.284;20.890;2023-02-02T17:14:51;3.50;;;1.80;;
76826;SDS011;65788;52.284;20.890;2023-02-02T17:17:26;2.60;;;1.40;;
76826;SDS011;65788;52.284;20.890;2023-02-02T17:19:54;4.20;;;1.60;;
76826;SDS011;65788;52.284;20.890;2023-02-02T17:22:22;3.50;;;1.70;;
76826;SDS011;65788;52.284;20.890;2023-02-02T17:24:51;4.10;;;1.40;;
76826;SDS011;65788;52.284;20.890;2023-02-02T17:27:26;4.70;;;1.80;;
76826;SDS011;65788;52.284;20.890;2023-02-02T17:29:55;2.90;;;1.40;;
76826;SDS011;65788;52.284;20.890;2023-02-02T17:32:25;3.20;;;1.70;;
76826;SDS011;65788;52.284;20.890;2023-02-02T17:34:52;4.30;;;1.80;;
76826;SDS011;65788;52.284;20.890;2023-02-02T17:37:19;3.70;;;2.00;;
76826;SDS011;65788;52.284;20.890;2023-02-02T17:39:46;3.20;;;1.70;;
76826;SDS011;65788;52.284;20.890;2023-02-02T17:44:54;4.40;;;2.00;;
76826;SDS011;65788;52.284;20.890;2023-02-02T17:47:22;4.90;;;1.70;;
76826;SDS011;65788;52.284;20.890;2023-02-02T17:49:49;3.40;;;2.00;;
76826;SDS011;65788;52.284;20.890;2023-02-02T17:52:16;4.00;;;1.90;;
76826;SDS011;65788;52.284;20.890;2023-02-02T17:54:43;4.40;;;2.10;;
76826;SDS011;65788;52.284;20.890;2023-02-02T17:57:10;3.80;;;2.00;;
76826;SDS011;65788;52.284;20.890;2023-02-02T17:59:38;5.50;;;2.20;;
76826;SDS011;65788;52.284;20.890;2023-02-02T18:02:05;3.70;;;1.80;;